createdAt,value
2022-12-08T00:01:39.545Z,-0.56
2022-12-08T00:04:07.634Z,-0.53
2022-12-08T00:06:40.728Z,-0.53
2022-12-08T00:09:36.400Z,-0.57
2022-12-08T00:12:11.034Z,-0.60
2022-12-08T00:14:43.928Z,-0.61
2022-12-08T00:17:13.415Z,-0.60
2022-12-08T00:19:42.348Z,-0.60
2022-12-08T00:22:11.964Z,-0.60
2022-12-08T00:24:40.966Z,-0.61
2022-12-08T00:27:11.110Z,-0.62
2022-12-08T00:29:38.761Z,-0.62
2022-12-08T00:32:06.647Z,-0.63
2022-12-08T00:34:34.531Z,-0.62
2022-12-08T00:37:02.241Z,-0.62
2022-12-08T00:39:29.873Z,-0.61
2022-12-08T00:41:57.447Z,-0.61
2022-12-08T00:44:25.137Z,-0.60
2022-12-08T00:46:52.814Z,-0.59
2022-12-08T00:49:21.225Z,-0.58
2022-12-08T00:51:49.197Z,-0.55
2022-12-08T00:54:17.604Z,-0.52
2022-12-08T00:56:45.382Z,-0.51
2022-12-08T00:59:13.080Z,-0.49
2022-12-08T01:01:41.214Z,-0.47
2022-12-08T01:04:12.734Z,-0.44
2022-12-08T01:06:40.336Z,-0.42
2022-12-08T01:09:08.904Z,-0.41
2022-12-08T01:11:36.791Z,-0.39
2022-12-08T01:14:04.530Z,-0.39
2022-12-08T01:16:35.238Z,-0.39
2022-12-08T01:19:03.664Z,-0.39
2022-12-08T01:21:31.275Z,-0.39
2022-12-08T01:24:01.890Z,-0.41
2022-12-08T01:26:29.503Z,-0.45
2022-12-08T01:28:57.075Z,-0.50
2022-12-08T01:31:24.713Z,-0.54
2022-12-08T01:33:52.749Z,-0.58
2022-12-08T01:36:25.964Z,-0.61
2022-12-08T01:38:54.843Z,-0.66
2022-12-08T01:41:25.174Z,-0.71
2022-12-08T01:44:04.081Z,-0.79
2022-12-08T01:46:34.039Z,-0.85
2022-12-08T01:49:11.506Z,-0.88
2022-12-08T01:51:46.860Z,-0.89
2022-12-08T01:54:15.487Z,-0.90
2022-12-08T01:56:52.582Z,-0.90
2022-12-08T01:59:20.291Z,-0.91
2022-12-08T02:01:48.036Z,-0.92
2022-12-08T02:04:15.715Z,-0.92
2022-12-08T02:06:46.702Z,-0.93
2022-12-08T02:09:14.570Z,-0.96
2022-12-08T02:11:42.146Z,-0.97
2022-12-08T02:14:13.633Z,-0.98
2022-12-08T02:16:50.451Z,-0.99
2022-12-08T02:19:49.475Z,-0.97
2022-12-08T02:22:26.366Z,-0.97
2022-12-08T02:25:02.093Z,-0.97
2022-12-08T02:27:48.297Z,-0.97
2022-12-08T02:30:19.835Z,-0.97
2022-12-08T02:33:18.429Z,-0.99
2022-12-08T02:36:00.301Z,-1.03
2022-12-08T02:39:00.086Z,-1.08
2022-12-08T02:41:37.333Z,-1.12
2022-12-08T02:44:20.044Z,-1.14
2022-12-08T02:46:54.065Z,-1.14
2022-12-08T02:49:21.721Z,-1.14
2022-12-08T02:51:49.404Z,-1.13
2022-12-08T02:54:17.225Z,-1.09
2022-12-08T02:57:30.145Z,-1.05
2022-12-08T03:00:08.883Z,-0.99
2022-12-08T03:02:56.384Z,-0.93
2022-12-08T03:05:45.449Z,-0.88
2022-12-08T03:08:13.171Z,-0.82
2022-12-08T03:10:43.051Z,-0.76
2022-12-08T03:13:20.651Z,-0.74
2022-12-08T03:15:51.110Z,-0.70
2022-12-08T03:18:24.070Z,-0.68
2022-12-08T03:20:52.123Z,-0.65
2022-12-08T03:23:21.215Z,-0.62
2022-12-08T03:25:56.894Z,-0.58
2022-12-08T03:28:25.273Z,-0.60
2022-12-08T03:30:57.118Z,-0.62
2022-12-08T03:33:30.472Z,-0.61
2022-12-08T03:36:01.666Z,-0.59
2022-12-08T03:38:40.481Z,-0.58
2022-12-08T03:41:08.115Z,-0.56
2022-12-08T03:43:36.060Z,-0.53
2022-12-08T03:46:03.733Z,-0.48
2022-12-08T03:48:31.368Z,-0.43
2022-12-08T03:50:58.920Z,-0.39
2022-12-08T03:53:26.523Z,-0.34
2022-12-08T03:55:54.553Z,-0.28
2022-12-08T03:58:22.162Z,-0.24
2022-12-08T04:00:49.789Z,-0.21
2022-12-08T04:03:17.447Z,-0.18
2022-12-08T04:05:45.114Z,-0.14
2022-12-08T04:08:12.740Z,-0.12
2022-12-08T04:10:40.340Z,-0.10
2022-12-08T04:13:07.933Z,-0.06
2022-12-08T04:15:35.550Z,-0.02
2022-12-08T04:18:03.334Z,0.03
2022-12-08T04:20:30.904Z,0.05
2022-12-08T04:22:58.473Z,0.05
2022-12-08T04:25:26.184Z,0.04
2022-12-08T04:27:53.748Z,0.03
2022-12-08T04:30:23.184Z,0.01
2022-12-08T04:32:50.773Z,0.01
2022-12-08T04:35:18.475Z,0.03
2022-12-08T04:37:46.083Z,0.04
2022-12-08T04:40:14.535Z,0.05
2022-12-08T04:42:42.178Z,0.05
2022-12-08T04:45:10.200Z,0.08
2022-12-08T04:47:37.868Z,0.10
2022-12-08T04:50:06.608Z,0.12
2022-12-08T04:52:34.477Z,0.13
2022-12-08T04:55:02.670Z,0.16
2022-12-08T04:57:30.359Z,0.19
2022-12-08T04:59:58.034Z,0.21
2022-12-08T05:02:26.044Z,0.25
2022-12-08T05:04:53.726Z,0.28
2022-12-08T05:07:21.393Z,0.29
2022-12-08T05:09:49.005Z,0.32
2022-12-08T05:12:16.763Z,0.32
2022-12-08T05:14:44.414Z,0.34
2022-12-08T05:17:11.993Z,0.35
2022-12-08T05:19:39.900Z,0.36
2022-12-08T05:22:07.506Z,0.36
2022-12-08T05:24:35.127Z,0.35
2022-12-08T05:27:03.056Z,0.35
2022-12-08T05:29:30.662Z,0.34
2022-12-08T05:31:58.385Z,0.36
2022-12-08T05:34:26.163Z,0.37
2022-12-08T05:36:53.887Z,0.38
2022-12-08T05:39:21.463Z,0.38
2022-12-08T05:41:49.039Z,0.40
2022-12-08T05:44:16.661Z,0.41
2022-12-08T05:46:44.333Z,0.42
2022-12-08T05:49:11.925Z,0.44
2022-12-08T05:51:39.673Z,0.45
2022-12-08T05:54:07.270Z,0.44
2022-12-08T05:56:34.944Z,0.45
2022-12-08T05:59:06.069Z,0.44
2022-12-08T06:01:34.103Z,0.44
2022-12-08T06:04:03.234Z,0.45
2022-12-08T06:06:36.236Z,0.46
2022-12-08T06:09:05.477Z,0.45
2022-12-08T06:11:33.582Z,0.45
2022-12-08T06:14:01.812Z,0.43
2022-12-08T06:16:30.243Z,0.42
2022-12-08T06:18:58.418Z,0.43
2022-12-08T06:21:26.161Z,0.44
2022-12-08T06:23:54.600Z,0.46
2022-12-08T06:26:23.151Z,0.49
2022-12-08T06:28:51.084Z,0.52
2022-12-08T06:31:24.586Z,0.56
2022-12-08T06:33:53.686Z,0.60
2022-12-08T06:36:24.274Z,0.67
2022-12-08T06:38:51.993Z,0.72
2022-12-08T06:41:19.654Z,0.75
2022-12-08T06:43:47.420Z,0.79
2022-12-08T06:46:17.958Z,0.82
2022-12-08T06:48:45.935Z,0.83
2022-12-08T06:51:19.768Z,0.84
2022-12-08T06:53:50.506Z,0.84
2022-12-08T06:56:18.215Z,0.85
2022-12-08T06:58:50.557Z,0.86
2022-12-08T07:01:20.081Z,0.86
2022-12-08T07:03:48.032Z,0.89
2022-12-08T07:06:19.277Z,0.95
2022-12-08T07:08:47.131Z,0.98
2022-12-08T07:11:20.986Z,1.01
2022-12-08T07:13:49.870Z,1.05
2022-12-08T07:16:17.563Z,1.09
2022-12-08T07:18:45.183Z,1.15
2022-12-08T07:21:14.068Z,1.23
2022-12-08T07:23:42.358Z,1.28
2022-12-08T07:26:12.329Z,1.31
2022-12-08T07:28:41.503Z,1.37
2022-12-08T07:31:21.535Z,1.43
2022-12-08T07:33:49.827Z,1.47
2022-12-08T07:36:17.600Z,1.51
2022-12-08T07:38:45.496Z,1.56
2022-12-08T07:41:17.878Z,1.61
2022-12-08T07:43:45.632Z,1.65
2022-12-08T07:46:19.307Z,1.68
2022-12-08T07:48:47.798Z,1.73
2022-12-08T07:51:16.547Z,1.77
2022-12-08T07:53:51.565Z,1.82
2022-12-08T07:56:21.926Z,1.89
2022-12-08T07:58:50.010Z,1.97
2022-12-08T08:01:29.524Z,2.07
2022-12-08T08:03:59.307Z,2.21
2022-12-08T08:06:27.465Z,2.38
2022-12-08T08:08:55.184Z,2.58
2022-12-08T08:11:23.903Z,2.77
2022-12-08T08:13:51.893Z,2.92
2022-12-08T08:16:20.413Z,3.04
2022-12-08T08:18:50.124Z,3.21
2022-12-08T08:24:07.344Z,3.67
2022-12-08T08:26:36.670Z,3.83
2022-12-08T08:29:04.291Z,3.96
2022-12-08T08:31:31.890Z,4.08
2022-12-08T08:33:59.528Z,4.22
2022-12-08T08:36:27.100Z,4.32
2022-12-08T08:38:54.765Z,4.39
2022-12-08T08:41:22.349Z,4.43
2022-12-08T08:43:49.908Z,4.46
2022-12-08T08:46:17.534Z,4.52
2022-12-08T08:48:45.310Z,4.59
2022-12-08T08:51:14.258Z,4.63
2022-12-08T08:53:42.526Z,4.65
2022-12-08T08:56:19.108Z,4.72
2022-12-08T08:58:50.724Z,4.79
2022-12-08T09:01:19.352Z,4.85
2022-12-08T09:03:48.010Z,4.82
2022-12-08T09:06:16.739Z,4.75
2022-12-08T09:08:45.284Z,4.68
2022-12-08T09:11:13.499Z,4.64
2022-12-08T09:13:41.609Z,4.59
2022-12-08T09:16:11.455Z,4.54
2022-12-08T09:18:39.110Z,4.48
2022-12-08T09:21:13.714Z,4.44
2022-12-08T09:23:41.298Z,4.42
2022-12-08T09:26:09.475Z,4.39
2022-12-08T09:28:37.604Z,4.38
2022-12-08T09:31:05.415Z,4.35
2022-12-08T09:33:33.022Z,4.33
2022-12-08T09:36:04.696Z,4.33
2022-12-08T09:38:32.619Z,4.33
2022-12-08T09:41:02.835Z,4.32
2022-12-08T09:43:48.692Z,4.30
2022-12-08T09:46:17.001Z,4.29
2022-12-08T09:48:51.309Z,4.24
2022-12-08T09:51:19.068Z,4.25
2022-12-08T09:53:52.572Z,4.25
2022-12-08T09:56:26.751Z,4.25
2022-12-08T09:59:03.628Z,4.26
2022-12-08T10:01:33.575Z,4.27
2022-12-08T10:04:01.953Z,4.30
2022-12-08T10:07:11.237Z,4.34
2022-12-08T10:09:45.655Z,4.36
2022-12-08T10:12:26.118Z,4.39
2022-12-08T10:14:56.769Z,4.41
2022-12-08T10:17:48.097Z,4.42
2022-12-08T10:20:19.718Z,4.40
2022-12-08T10:22:57.577Z,4.34
2022-12-08T10:25:46.916Z,4.24
2022-12-08T10:28:15.262Z,4.20
2022-12-08T10:30:43.262Z,4.18
2022-12-08T10:33:21.762Z,4.18
2022-12-08T10:35:54.556Z,4.20
2022-12-08T10:38:26.881Z,4.20
2022-12-08T10:41:03.652Z,4.21
2022-12-08T10:43:32.824Z,4.25
2022-12-08T10:46:21.782Z,4.31
2022-12-08T10:49:10.820Z,4.37
2022-12-08T10:51:41.212Z,4.41
2022-12-08T10:54:35.775Z,4.41
2022-12-08T10:57:03.558Z,4.35
2022-12-08T10:59:33.959Z,4.35
2022-12-08T11:02:01.705Z,4.35
2022-12-08T11:04:36.353Z,4.36
2022-12-08T11:07:06.660Z,4.34
2022-12-08T11:09:47.315Z,4.32
2022-12-08T11:12:16.140Z,4.30
2022-12-08T11:14:43.664Z,4.26
2022-12-08T11:17:23.581Z,4.21
2022-12-08T11:20:09.734Z,4.15
2022-12-08T11:22:43.157Z,4.11
2022-12-08T11:25:25.483Z,4.08
2022-12-08T11:28:02.352Z,4.06
2022-12-08T11:30:44.711Z,4.02
2022-12-08T11:33:16.153Z,3.98
2022-12-08T11:36:13.378Z,3.94
2022-12-08T11:38:44.348Z,3.90
2022-12-08T11:41:17.067Z,3.87
2022-12-08T11:43:58.481Z,3.83
2022-12-08T11:46:34.836Z,3.79
2022-12-08T11:49:09.342Z,3.79
2022-12-08T11:51:45.892Z,3.80
2022-12-08T11:54:26.191Z,3.79
2022-12-08T11:56:59.454Z,3.76
2022-12-08T11:59:57.230Z,3.76
2022-12-08T12:02:31.140Z,3.74
2022-12-08T12:05:08.264Z,3.74
2022-12-08T12:08:02.540Z,3.74
2022-12-08T12:10:30.223Z,3.75
2022-12-08T12:13:35.980Z,3.74
2022-12-08T12:16:25.486Z,3.74
2022-12-08T12:19:10.016Z,3.76
2022-12-08T12:21:52.629Z,3.81
2022-12-08T12:24:30.483Z,3.81
2022-12-08T12:27:07.126Z,3.84
2022-12-08T12:29:38.238Z,3.86
2022-12-08T12:32:09.039Z,3.87
2022-12-08T12:34:46.871Z,3.86
2022-12-08T12:37:18.572Z,3.85
2022-12-08T12:39:52.153Z,3.83
2022-12-08T12:43:01.567Z,3.82
2022-12-08T12:45:33.140Z,3.81
2022-12-08T12:48:00.935Z,3.81
2022-12-08T12:50:34.779Z,3.82
2022-12-08T12:53:17.568Z,3.84
2022-12-08T12:55:56.944Z,3.87
2022-12-08T12:58:27.542Z,3.90
2022-12-08T13:01:10.301Z,3.94
2022-12-08T13:03:50.466Z,3.97
2022-12-08T13:06:35.614Z,3.99
2022-12-08T13:09:04.221Z,3.99
2022-12-08T13:11:48.076Z,3.99
2022-12-08T13:14:34.626Z,3.99
2022-12-08T13:17:07.790Z,3.97
2022-12-08T13:19:38.736Z,3.96
2022-12-08T13:22:43.975Z,3.95
2022-12-08T13:25:39.357Z,3.93
2022-12-08T13:28:16.110Z,3.89
2022-12-08T13:30:53.620Z,3.88
2022-12-08T13:33:50.905Z,3.86
2022-12-08T13:36:28.878Z,3.84
2022-12-08T13:38:58.083Z,3.84
2022-12-08T13:41:40.094Z,3.82
2022-12-08T13:45:11.305Z,3.80
2022-12-08T13:56:59.645Z,3.77
2022-12-08T13:58:40.374Z,3.75
2022-12-08T14:01:21.709Z,3.74
2022-12-08T14:06:50.333Z,3.72
2022-12-08T14:09:22.355Z,3.71
2022-12-08T14:12:03.024Z,3.72
2022-12-08T14:15:02.008Z,3.73
2022-12-08T14:17:27.289Z,3.74
2022-12-08T14:19:57.094Z,3.75
2022-12-08T14:22:24.727Z,3.73
2022-12-08T14:24:54.187Z,3.72
2022-12-08T14:27:24.389Z,3.70
2022-12-08T14:29:55.496Z,3.70
2022-12-08T14:32:40.004Z,3.70
2022-12-08T14:35:07.806Z,3.67
2022-12-08T14:37:41.144Z,3.65
2022-12-08T14:40:12.045Z,3.63
2022-12-08T14:42:46.360Z,3.62
2022-12-08T14:45:17.051Z,3.62
2022-12-08T14:47:44.834Z,3.61
2022-12-08T14:50:41.714Z,3.60
2022-12-08T14:53:15.614Z,3.61
2022-12-08T14:55:46.003Z,3.62
2022-12-08T14:58:19.996Z,3.62
2022-12-08T15:00:52.061Z,3.63
2022-12-08T15:03:22.029Z,3.61
2022-12-08T15:06:00.391Z,3.57
2022-12-08T15:08:28.173Z,3.53
2022-12-08T15:11:23.483Z,3.50
2022-12-08T15:13:52.474Z,3.50
2022-12-08T15:16:43.785Z,3.51
2022-12-08T15:19:23.310Z,3.51
2022-12-08T15:21:51.237Z,3.50
2022-12-08T15:24:21.545Z,3.49
2022-12-08T15:26:50.393Z,3.49
2022-12-08T15:29:26.680Z,3.49
2022-12-08T15:31:59.930Z,3.48
2022-12-08T15:34:27.745Z,3.46
2022-12-08T15:36:55.429Z,3.42
2022-12-08T15:39:33.502Z,3.40
2022-12-08T15:42:02.468Z,3.39
2022-12-08T15:44:30.075Z,3.38
2022-12-08T15:46:58.626Z,3.40
2022-12-08T15:49:26.440Z,3.40
2022-12-08T15:52:02.017Z,3.41
2022-12-08T15:54:35.720Z,3.43
2022-12-08T15:57:19.261Z,3.42
2022-12-08T15:59:51.028Z,3.43
2022-12-08T16:02:22.518Z,3.42
2022-12-08T16:07:38.666Z,3.35
2022-12-08T16:10:08.544Z,3.32
2022-12-08T16:13:13.908Z,3.30
2022-12-08T16:18:21.855Z,3.30
2022-12-08T16:23:45.465Z,3.19
2022-12-08T16:29:18.543Z,3.06
2022-12-08T16:31:47.041Z,3.04
2022-12-08T16:34:14.969Z,3.02
2022-12-08T16:36:42.556Z,3.01
2022-12-08T16:39:13.152Z,2.98
2022-12-08T16:41:40.817Z,2.97
2022-12-08T16:44:08.445Z,2.98
2022-12-08T16:46:36.081Z,3.00
2022-12-08T16:49:07.590Z,3.03
2022-12-08T16:51:35.241Z,3.05
2022-12-08T16:54:02.885Z,3.06
2022-12-08T16:56:33.039Z,3.07
2022-12-08T16:59:01.949Z,3.07
2022-12-08T17:01:29.847Z,3.07
2022-12-08T17:06:45.483Z,3.07
2022-12-08T17:09:13.140Z,3.07
2022-12-08T17:11:43.251Z,3.07
2022-12-08T17:14:16.384Z,3.08
2022-12-08T17:16:45.593Z,3.08
2022-12-08T17:19:14.357Z,3.08
2022-12-08T17:21:42.665Z,3.10
2022-12-08T17:24:10.596Z,3.09
2022-12-08T17:26:38.524Z,3.12
2022-12-08T17:29:06.175Z,3.15
2022-12-08T17:31:34.003Z,3.18
2022-12-08T17:34:03.216Z,3.19
2022-12-08T17:36:31.567Z,3.20
2022-12-08T17:39:00.119Z,3.20
2022-12-08T17:41:28.701Z,3.21
2022-12-08T17:43:56.793Z,3.21
2022-12-08T17:46:24.567Z,3.21
2022-12-08T17:48:52.246Z,3.22
2022-12-08T17:51:19.863Z,3.21
2022-12-08T17:53:47.498Z,3.22
2022-12-08T17:56:19.038Z,3.24
2022-12-08T17:58:52.890Z,3.25
2022-12-08T18:01:23.888Z,3.25
2022-12-08T18:03:51.740Z,3.27
2022-12-08T18:06:20.000Z,3.29
2022-12-08T18:08:47.766Z,3.33
2022-12-08T18:11:19.848Z,3.36
2022-12-08T18:13:49.491Z,3.37
2022-12-08T18:16:18.738Z,3.38
2022-12-08T18:18:47.116Z,3.39
2022-12-08T18:21:22.797Z,3.38
2022-12-08T18:23:51.505Z,3.37
2022-12-08T18:26:19.972Z,3.36
2022-12-08T18:28:47.764Z,3.34
2022-12-08T18:31:19.079Z,3.31
2022-12-08T18:33:47.858Z,3.31
2022-12-08T18:36:25.309Z,3.30
2022-12-08T18:38:53.357Z,3.27
2022-12-08T18:41:23.539Z,3.28
2022-12-08T18:43:51.840Z,3.27
2022-12-08T18:46:19.802Z,3.27
2022-12-08T18:48:49.569Z,3.28
2022-12-08T18:51:22.693Z,3.27
2022-12-08T18:53:51.428Z,3.27
2022-12-08T18:56:28.298Z,3.25
2022-12-08T18:59:02.849Z,3.24
2022-12-08T19:01:32.976Z,3.21
2022-12-08T19:06:51.273Z,3.18
2022-12-08T19:09:19.316Z,3.16
2022-12-08T19:11:46.943Z,3.16
2022-12-08T19:14:14.532Z,3.16
2022-12-08T19:16:42.228Z,3.14
2022-12-08T19:19:09.822Z,3.13
2022-12-08T19:21:41.395Z,3.11
2022-12-08T19:24:12.628Z,3.07
2022-12-08T19:26:40.425Z,3.05
2022-12-08T19:29:08.278Z,3.01
2022-12-08T19:31:36.047Z,2.99
2022-12-08T19:34:03.698Z,3.00
2022-12-08T19:36:31.335Z,3.01
2022-12-08T19:38:58.891Z,3.02
2022-12-08T19:41:26.939Z,3.03
2022-12-08T19:43:54.517Z,3.06
2022-12-08T19:46:22.212Z,3.08
2022-12-08T19:48:49.899Z,3.09
2022-12-08T19:51:17.490Z,3.07
2022-12-08T19:53:47.747Z,3.04
2022-12-08T19:56:15.720Z,3.02
2022-12-08T19:58:43.406Z,3.00
2022-12-08T20:01:11.091Z,2.99
2022-12-08T20:03:38.905Z,2.99
2022-12-08T20:06:06.539Z,2.98
2022-12-08T20:08:34.213Z,2.96
2022-12-08T20:11:01.859Z,2.97
2022-12-08T20:13:29.446Z,3.00
2022-12-08T20:15:57.587Z,3.02
2022-12-08T20:18:25.264Z,3.06
2022-12-08T20:20:52.872Z,3.07
2022-12-08T20:23:21.654Z,3.09
2022-12-08T20:25:49.286Z,3.07
2022-12-08T20:28:16.998Z,3.05
2022-12-08T20:30:45.729Z,3.04
2022-12-08T20:33:14.013Z,3.02
2022-12-08T20:35:42.392Z,3.01
2022-12-08T20:38:11.073Z,2.98
2022-12-08T20:40:44.356Z,2.96
2022-12-08T20:43:12.015Z,2.94
2022-12-08T20:45:39.604Z,2.92
2022-12-08T20:48:07.346Z,2.90
2022-12-08T20:50:35.028Z,2.89
2022-12-08T20:53:02.805Z,2.91
2022-12-08T20:55:30.611Z,2.96
2022-12-08T20:57:58.245Z,2.98
2022-12-08T21:00:26.016Z,2.99
2022-12-08T21:02:56.828Z,3.01
2022-12-08T21:05:25.055Z,2.99
2022-12-08T21:07:53.119Z,2.97
2022-12-08T21:10:20.775Z,2.96
2022-12-08T21:12:48.544Z,2.95
2022-12-08T21:15:16.428Z,2.94
2022-12-08T21:17:44.142Z,2.93
2022-12-08T21:20:12.158Z,2.91
2022-12-08T21:22:40.243Z,2.89
2022-12-08T21:25:08.867Z,2.88
2022-12-08T21:27:37.803Z,2.87
2022-12-08T21:30:07.999Z,2.87
2022-12-08T21:32:37.934Z,2.90
2022-12-08T21:35:07.066Z,2.92
2022-12-08T21:37:35.223Z,2.95
2022-12-08T21:40:03.200Z,2.97
2022-12-08T21:42:34.312Z,2.99
2022-12-08T21:45:02.466Z,2.97
2022-12-08T21:47:30.239Z,2.95
2022-12-08T21:49:58.119Z,2.94
2022-12-08T21:52:26.341Z,2.92
2022-12-08T21:54:53.949Z,2.91
2022-12-08T21:57:21.877Z,2.87
2022-12-08T21:59:49.727Z,2.84
2022-12-08T22:02:22.233Z,2.80
2022-12-08T22:04:50.933Z,2.79
2022-12-08T22:07:20.650Z,2.78
2022-12-08T22:09:48.444Z,2.77
2022-12-08T22:12:16.228Z,2.79
2022-12-08T22:14:44.092Z,2.79
2022-12-08T22:17:11.849Z,2.83
2022-12-08T22:19:39.484Z,2.86
2022-12-08T22:22:07.176Z,2.86
2022-12-08T22:24:34.871Z,2.84
2022-12-08T22:27:02.726Z,2.80
2022-12-08T22:29:30.414Z,2.77
2022-12-08T22:31:58.229Z,2.75
2022-12-08T22:34:25.893Z,2.74
2022-12-08T22:36:53.472Z,2.71
2022-12-08T22:39:21.133Z,2.70
2022-12-08T22:41:49.101Z,2.67
2022-12-08T22:44:16.929Z,2.68
2022-12-08T22:46:44.985Z,2.69
2022-12-08T22:49:12.715Z,2.71
2022-12-08T22:51:40.383Z,2.74
2022-12-08T22:54:10.644Z,2.77
2022-12-08T22:56:38.533Z,2.78
2022-12-08T22:59:06.290Z,2.78
2022-12-08T23:01:34.619Z,2.80
2022-12-08T23:04:20.208Z,2.83
2022-12-08T23:06:48.246Z,2.83
2022-12-08T23:09:16.020Z,2.83
2022-12-08T23:11:43.718Z,2.81
2022-12-08T23:14:11.300Z,2.80
2022-12-08T23:16:39.055Z,2.78
2022-12-08T23:19:06.773Z,2.75
2022-12-08T23:21:34.391Z,2.73
2022-12-08T23:24:02.681Z,2.73
2022-12-08T23:26:32.091Z,2.74
2022-12-08T23:29:00.276Z,2.75
2022-12-08T23:31:28.165Z,2.75
2022-12-08T23:33:56.056Z,2.77
2022-12-08T23:36:24.462Z,2.80
2022-12-08T23:38:53.297Z,2.83
2022-12-08T23:41:21.407Z,2.85
2022-12-08T23:43:51.306Z,2.86
2022-12-08T23:46:21.124Z,2.87
2022-12-08T23:48:50.364Z,2.87
2022-12-08T23:51:18.703Z,2.86
2022-12-08T23:53:46.421Z,2.85
2022-12-08T23:56:16.883Z,2.82
2022-12-08T23:58:45.984Z,2.81
